Time;durP1;ratioP1;P1;durP2;ratioP2;P2;SDS_P1;SDS_P2;PMS_P1;PMS_P2;Temp;Humidity;BMP_temperature;BMP_pressure;BME280_temperature;BME280_humidity;BME280_pressure;Samples;Min_cycle;Max_cycle;Signal;HPM_P1;HPM_P2
2023/04/07 00:02:16;;;;;;;2.90;1.85;;;11.80;99.90;;;;;;5053243;28;20032;-46
2023/04/07 00:04:41;;;;;;;2.00;1.63;;;11.70;99.90;;;;;;5053370;28;20040;-41
2023/04/07 00:07:07;;;;;;;2.28;1.60;;;11.70;99.90;;;;;;5051064;28;20463;-40
2023/04/07 00:09:32;;;;;;;2.50;1.77;;;11.70;99.90;;;;;;5053206;28;20025;-42
2023/04/07 00:12:00;;;;;;;2.83;1.80;;;11.70;99.90;;;;;;5052921;28;20108;-44
2023/04/07 00:14:26;;;;;;;2.75;1.80;;;11.80;99.90;;;;;;5052823;28;20036;-46
2023/04/07 00:16:52;;;;;;;2.30;1.65;;;11.80;99.90;;;;;;5051313;28;20037;-40
2023/04/07 00:19:17;;;;;;;2.38;1.67;;;11.80;99.90;;;;;;5053244;28;20491;-38
2023/04/07 00:21:43;;;;;;;1.60;1.30;;;11.80;99.90;;;;;;5052600;28;20090;-41
2023/04/07 00:24:08;;;;;;;2.15;1.60;;;11.70;99.90;;;;;;5052593;28;20033;-44
2023/04/07 00:26:34;;;;;;;2.83;1.90;;;11.80;99.90;;;;;;5052242;28;20021;-41
2023/04/07 00:29:00;;;;;;;3.10;1.70;;;11.80;99.90;;;;;;5052490;28;20021;-42
2023/04/07 00:31:25;;;;;;;1.98;1.55;;;11.80;99.90;;;;;;5052658;28;20021;-42
2023/04/07 00:33:51;;;;;;;3.20;1.90;;;11.80;99.90;;;;;;5052436;28;20391;-41
2023/04/07 00:36:17;;;;;;;2.60;1.80;;;11.80;99.90;;;;;;5052009;28;20021;-40
2023/04/07 00:38:42;;;;;;;2.78;1.80;;;11.70;99.90;;;;;;5052400;28;20044;-41
2023/04/07 00:41:08;;;;;;;2.60;1.77;;;11.80;99.90;;;;;;5052654;28;20032;-41
2023/04/07 00:43:34;;;;;;;2.55;2.13;;;11.80;99.90;;;;;;5052328;28;20453;-43
2023/04/07 00:46:00;;;;;;;2.65;1.85;;;11.80;99.90;;;;;;5051825;28;20029;-50
2023/04/07 00:48:25;;;;;;;2.85;1.83;;;11.70;99.90;;;;;;5052493;28;20441;-45
2023/04/07 00:50:51;;;;;;;2.83;1.98;;;11.80;99.90;;;;;;5052229;28;20074;-43
2023/04/07 00:53:17;;;;;;;2.22;1.92;;;11.70;99.90;;;;;;5052178;28;20044;-41
2023/04/07 00:55:43;;;;;;;3.30;2.10;;;11.70;99.90;;;;;;5051819;28;20025;-42
2023/04/07 00:58:09;;;;;;;3.22;1.75;;;11.80;99.90;;;;;;5051714;28;20071;-41
2023/04/07 01:00:41;;;;;;;2.97;2.17;;;11.80;99.90;;;;;;5052086;28;20044;-42
2023/04/07 01:03:16;;;;;;;2.03;1.65;;;11.70;99.90;;;;;;5051868;28;20029;-42
2023/04/07 01:05:55;;;;;;;3.22;2.10;;;11.70;99.90;;;;;;5051624;28;20028;-45
2023/04/07 01:08:27;;;;;;;3.50;1.95;;;11.70;99.90;;;;;;5051895;28;20031;-43
2023/04/07 01:11:07;;;;;;;3.92;2.00;;;11.70;99.90;;;;;;5051915;28;20028;-43
2023/04/07 01:13:48;;;;;;;3.70;2.10;;;11.70;99.90;;;;;;5052070;28;20487;-37
2023/04/07 01:16:30;;;;;;;3.15;2.15;;;11.70;99.90;;;;;;5051329;28;20035;-42
2023/04/07 01:19:35;;;;;;;2.63;1.77;;;11.70;99.90;;;;;;5051775;28;20036;-41
2023/04/07 01:22:06;;;;;;;2.90;2.15;;;11.70;99.90;;;;;;5039313;28;20044;-45
2023/04/07 01:25:08;;;;;;;3.60;2.45;;;11.70;99.90;;;;;;5051502;28;20474;-42
2023/04/07 01:27:37;;;;;;;2.40;1.70;;;11.70;99.90;;;;;;5050996;28;20071;-40
2023/04/07 01:30:03;;;;;;;3.55;2.03;;;11.70;99.90;;;;;;5051525;28;20111;-41
2023/04/07 01:32:31;;;;;;;2.58;1.88;;;11.70;99.90;;;;;;5051347;28;20056;-46
2023/04/07 01:34:59;;;;;;;3.20;2.10;;;11.70;99.90;;;;;;5051452;28;20033;-41
2023/04/07 01:37:27;;;;;;;2.65;2.00;;;11.70;99.90;;;;;;5050928;28;20021;-39
2023/04/07 01:39:52;;;;;;;2.50;2.08;;;11.70;99.90;;;;;;5051382;28;20017;-42
2023/04/07 01:42:19;;;;;;;3.67;2.28;;;11.70;99.90;;;;;;5051290;28;20079;-41
2023/04/07 01:44:47;;;;;;;3.30;1.92;;;11.70;99.90;;;;;;5051140;28;20029;-39
2023/04/07 01:47:14;;;;;;;4.40;2.08;;;11.70;99.90;;;;;;5050557;28;20539;-42
2023/04/07 01:49:40;;;;;;;4.32;2.42;;;11.70;99.90;;;;;;5050660;28;20029;-43
2023/04/07 01:52:07;;;;;;;3.35;2.10;;;11.70;99.90;;;;;;5051144;28;20025;-43
2023/04/07 01:54:34;;;;;;;3.78;2.20;;;11.70;99.90;;;;;;5051097;28;20025;-42
2023/04/07 01:57:00;;;;;;;4.43;2.35;;;11.70;99.90;;;;;;5050549;28;20040;-40
2023/04/07 01:59:26;;;;;;;3.83;2.70;;;11.70;99.90;;;;;;5051116;28;20028;-40
2023/04/07 02:01:52;;;;;;;4.45;2.53;;;11.70;99.90;;;;;;5050744;28;20448;-42
2023/04/07 02:04:55;;;;;;;4.47;2.13;;;11.70;99.90;;;;;;5050785;28;20021;-41
2023/04/07 02:07:28;;;;;;;2.92;2.40;;;11.70;99.90;;;;;;5045277;28;20078;-42
2023/04/07 02:09:58;;;;;;;3.55;2.30;;;11.70;99.90;;;;;;5050906;28;20021;-41
2023/04/07 02:12:27;;;;;;;2.17;1.95;;;11.70;99.90;;;;;;5050950;28;20360;-38
2023/04/07 02:14:55;;;;;;;3.47;2.10;;;11.70;99.90;;;;;;5050775;28;20048;-43
2023/04/07 02:17:24;;;;;;;3.42;2.33;;;11.70;99.90;;;;;;5050280;28;20025;-42
2023/04/07 02:19:51;;;;;;;3.22;2.50;;;11.70;99.90;;;;;;5050804;28;20020;-40
2023/04/07 02:22:17;;;;;;;2.72;2.10;;;11.70;99.90;;;;;;5050746;28;20032;-46
2023/04/07 02:24:43;;;;;;;4.55;2.38;;;11.70;99.90;;;;;;5050495;28;20112;-45
2023/04/07 02:27:09;;;;;;;3.90;2.17;;;11.70;99.90;;;;;;5050279;28;20112;-42
2023/04/07 02:29:34;;;;;;;2.47;2.00;;;11.60;99.90;;;;;;5050920;28;20104;-41
2023/04/07 02:32:00;;;;;;;2.38;1.70;;;11.60;99.90;;;;;;5050954;28;20021;-41
2023/04/07 02:34:26;;;;;;;2.97;2.00;;;11.70;99.90;;;;;;5050747;28;20032;-43
2023/04/07 02:36:51;;;;;;;5.00;2.30;;;11.70;99.90;;;;;;5050228;28;20103;-44
2023/04/07 02:39:17;;;;;;;3.90;2.35;;;11.70;99.90;;;;;;5050674;28;20395;-41
2023/04/07 02:41:43;;;;;;;3.15;2.20;;;11.70;99.90;;;;;;5050662;28;20512;-41
2023/04/07 02:44:08;;;;;;;3.40;2.25;;;11.70;99.90;;;;;;5049466;28;20025;-43
2023/04/07 02:46:34;;;;;;;5.22;2.60;;;11.70;99.90;;;;;;5050026;28;20175;-43
2023/04/07 02:49:00;;;;;;;2.80;2.00;;;11.70;99.90;;;;;;5051209;28;20026;-44
2023/04/07 02:51:26;;;;;;;3.08;2.13;;;11.70;99.90;;;;;;5051578;28;20033;-41
2023/04/07 02:53:51;;;;;;;3.50;2.58;;;11.70;99.90;;;;;;5052255;28;20021;-42
2023/04/07 02:56:17;;;;;;;3.33;2.25;;;11.70;99.90;;;;;;5050731;28;20029;-43
2023/04/07 02:58:44;;;;;;;2.92;2.22;;;11.70;99.90;;;;;;5052433;28;20407;-42
2023/04/07 03:01:10;;;;;;;5.00;2.70;;;11.60;99.90;;;;;;5051761;28;20029;-43
2023/04/07 03:03:35;;;;;;;4.00;2.35;;;11.70;99.90;;;;;;5054981;28;20049;-42
2023/04/07 03:06:01;;;;;;;4.25;2.25;;;11.60;99.90;;;;;;5055095;28;20479;-43
2023/04/07 03:08:26;;;;;;;3.00;2.05;;;11.60;99.90;;;;;;5054450;28;20056;-43
2023/04/07 03:10:52;;;;;;;3.55;2.65;;;11.70;99.90;;;;;;5054873;28;20088;-43
2023/04/07 03:13:19;;;;;;;5.65;1.85;;;11.60;99.90;;;;;;5054911;28;20025;-44
2023/04/07 03:15:44;;;;;;;4.05;2.05;;;11.60;99.90;;;;;;5054620;28;20049;-43
2023/04/07 03:18:10;;;;;;;2.72;2.00;;;11.60;99.90;;;;;;5054893;28;20057;-43
2023/04/07 03:20:36;;;;;;;3.55;2.22;;;11.60;99.90;;;;;;5055522;28;20368;-44
2023/04/07 03:23:02;;;;;;;2.85;2.30;;;11.60;99.90;;;;;;5055602;28;20025;-43
2023/04/07 03:25:28;;;;;;;3.40;2.30;;;11.60;99.90;;;;;;5056062;28;20025;-42
2023/04/07 03:27:54;;;;;;;3.30;2.13;;;11.60;99.90;;;;;;5055705;28;20029;-43
2023/04/07 03:30:20;;;;;;;3.80;2.30;;;11.60;99.90;;;;;;5054536;28;20028;-42
2023/04/07 03:32:46;;;;;;;3.08;2.20;;;11.60;99.90;;;;;;5055968;28;20017;-41
2023/04/07 03:35:11;;;;;;;3.85;2.53;;;11.60;99.90;;;;;;5054609;28;20582;-43
2023/04/07 03:37:37;;;;;;;4.05;2.53;;;11.60;99.90;;;;;;5054432;28;20114;-43
2023/04/07 03:40:04;;;;;;;2.67;2.10;;;11.60;99.90;;;;;;5055249;28;20148;-42
2023/04/07 03:42:30;;;;;;;3.15;2.03;;;11.60;99.90;;;;;;5054085;28;20099;-43
2023/04/07 03:44:55;;;;;;;4.03;2.05;;;11.60;99.90;;;;;;5054557;28;20530;-43
2023/04/07 03:47:21;;;;;;;4.55;2.83;;;11.60;99.90;;;;;;5054614;28;20017;-44
2023/04/07 03:49:47;;;;;;;2.63;2.13;;;11.60;99.90;;;;;;5055180;28;20052;-43
2023/04/07 03:52:14;;;;;;;2.83;2.00;;;11.60;99.90;;;;;;5053853;28;20454;-43
2023/04/07 03:54:40;;;;;;;3.90;2.55;;;11.60;99.90;;;;;;5054892;28;20364;-43
2023/04/07 03:57:06;;;;;;;3.60;2.35;;;11.60;99.90;;;;;;5053394;28;20095;-43
2023/04/07 03:59:31;;;;;;;4.03;2.47;;;11.60;99.90;;;;;;5053300;28;20029;-43
2023/04/07 04:01:57;;;;;;;2.88;2.33;;;11.60;99.90;;;;;;5053110;28;20025;-43
2023/04/07 04:04:23;;;;;;;3.20;2.30;;;11.50;99.90;;;;;;5053073;28;20377;-43
2023/04/07 04:06:49;;;;;;;3.78;2.45;;;11.60;99.90;;;;;;5053471;28;20629;-43
2023/04/07 04:09:15;;;;;;;4.03;2.53;;;11.60;99.90;;;;;;5053512;28;20514;-43
2023/04/07 04:11:41;;;;;;;4.05;2.65;;;11.60;99.90;;;;;;5052975;28;20029;-43
2023/04/07 04:14:07;;;;;;;3.22;2.55;;;11.50;99.90;;;;;;5052395;28;20021;-43
2023/04/07 04:16:34;;;;;;;2.75;2.08;;;11.50;99.90;;;;;;5052435;28;20498;-44
2023/04/07 04:19:00;;;;;;;3.95;2.58;;;11.60;99.90;;;;;;5052882;28;20029;-43
2023/04/07 04:21:26;;;;;;;3.20;2.38;;;11.50;99.90;;;;;;5052686;28;20100;-43
2023/04/07 04:23:52;;;;;;;4.13;2.35;;;11.60;99.90;;;;;;5052608;28;20109;-43
2023/04/07 04:26:17;;;;;;;3.35;2.38;;;11.50;99.90;;;;;;5052184;28;20483;-43
2023/04/07 04:28:43;;;;;;;4.28;2.30;;;11.50;99.90;;;;;;5052638;28;20031;-44
2023/04/07 04:31:09;;;;;;;3.15;2.38;;;11.50;99.90;;;;;;5052639;28;20025;-43
2023/04/07 04:33:35;;;;;;;3.35;2.42;;;11.50;99.90;;;;;;5052673;28;20028;-43
2023/04/07 04:36:00;;;;;;;3.05;2.35;;;11.50;99.90;;;;;;5052422;28;20048;-43
2023/04/07 04:38:26;;;;;;;3.20;2.53;;;11.50;99.90;;;;;;5052431;28;20537;-43
2023/04/07 04:40:51;;;;;;;5.38;2.63;;;11.50;99.90;;;;;;5052539;28;20303;-43
2023/04/07 04:43:17;;;;;;;3.35;2.35;;;11.50;99.90;;;;;;5052398;28;20029;-43
2023/04/07 04:45:43;;;;;;;4.07;2.40;;;11.50;99.90;;;;;;5051523;28;20390;-43
2023/04/07 04:48:09;;;;;;;3.63;2.75;;;11.50;99.90;;;;;;5053168;28;20399;-45
2023/04/07 04:50:35;;;;;;;4.85;2.75;;;11.50;99.90;;;;;;5053992;28;20017;-43
2023/04/07 04:53:01;;;;;;;3.67;2.55;;;11.50;99.90;;;;;;5052251;28;20028;-43
2023/04/07 04:55:27;;;;;;;4.15;3.00;;;11.50;99.90;;;;;;5052480;28;20112;-44
2023/04/07 04:57:53;;;;;;;3.47;2.53;;;11.50;99.90;;;;;;5052504;28;20136;-43
2023/04/07 05:00:19;;;;;;;3.67;2.60;;;11.50;99.90;;;;;;5051964;28;20036;-44
2023/04/07 05:02:45;;;;;;;4.13;2.65;;;11.40;99.90;;;;;;5052757;28;20079;-44
2023/04/07 05:05:11;;;;;;;4.05;2.85;;;11.50;99.90;;;;;;5052932;28;20495;-43
2023/04/07 05:07:39;;;;;;;4.80;3.00;;;11.50;99.90;;;;;;5052077;28;20086;-43
2023/04/07 05:10:06;;;;;;;3.78;2.60;;;11.40;99.90;;;;;;5052632;28;20044;-43
2023/04/07 05:12:32;;;;;;;5.60;2.47;;;11.40;99.90;;;;;;5051801;28;20038;-45
2023/04/07 05:14:57;;;;;;;4.10;2.83;;;11.50;99.90;;;;;;5052385;28;20028;-44
2023/04/07 05:17:23;;;;;;;4.38;2.80;;;11.50;99.90;;;;;;5052210;28;20032;-41
2023/04/07 05:19:49;;;;;;;3.78;2.70;;;11.50;99.90;;;;;;5053064;28;20051;-43
2023/04/07 05:22:15;;;;;;;4.75;2.53;;;11.50;99.90;;;;;;5053886;28;20048;-42
2023/04/07 05:24:40;;;;;;;4.15;2.95;;;11.50;99.90;;;;;;5050904;28;20095;-43
2023/04/07 05:27:06;;;;;;;4.10;2.85;;;11.50;99.90;;;;;;5051410;28;20364;-43
2023/04/07 05:29:32;;;;;;;3.63;2.72;;;11.50;99.90;;;;;;5052228;28;20048;-40
2023/04/07 05:31:57;;;;;;;4.15;2.65;;;11.50;99.90;;;;;;5053132;28;20476;-45
2023/04/07 05:34:23;;;;;;;3.40;2.67;;;11.50;99.90;;;;;;5052784;28;20036;-43
2023/04/07 05:36:49;;;;;;;3.70;2.47;;;11.50;99.90;;;;;;5053154;28;20108;-43
2023/04/07 05:39:14;;;;;;;3.00;2.38;;;11.50;99.90;;;;;;5052529;28;20060;-43
2023/04/07 05:41:41;;;;;;;4.88;2.90;;;11.50;99.90;;;;;;5052199;28;20025;-43
2023/04/07 05:44:06;;;;;;;3.83;2.58;;;11.50;99.90;;;;;;5051756;28;20136;-44
2023/04/07 05:46:32;;;;;;;3.50;2.45;;;11.40;99.90;;;;;;5051902;28;20099;-43
2023/04/07 05:48:57;;;;;;;3.47;2.67;;;11.50;99.90;;;;;;5052296;28;20079;-43
2023/04/07 05:51:23;;;;;;;3.60;2.60;;;11.40;99.90;;;;;;5052253;28;20048;-43
2023/04/07 05:53:49;;;;;;;3.92;2.80;;;11.50;99.90;;;;;;5053078;28;20029;-45
2023/04/07 05:56:14;;;;;;;5.30;2.78;;;11.50;99.90;;;;;;5051034;28;20033;-44
2023/04/07 05:58:40;;;;;;;3.92;2.50;;;11.40;99.90;;;;;;5052009;28;20025;-45
2023/04/07 06:01:06;;;;;;;4.03;2.50;;;11.50;99.90;;;;;;5052972;28;20035;-43
2023/04/07 06:03:31;;;;;;;3.72;2.13;;;11.50;99.90;;;;;;5052333;28;20037;-41
2023/04/07 06:05:57;;;;;;;4.07;2.72;;;11.40;99.90;;;;;;5051293;28;20029;-44
2023/04/07 06:08:23;;;;;;;4.05;2.53;;;11.40;99.90;;;;;;5050907;28;20487;-45
2023/04/07 06:10:48;;;;;;;4.05;3.03;;;11.50;99.90;;;;;;5050860;28;20049;-40
2023/04/07 06:13:14;;;;;;;3.40;2.17;;;11.40;99.90;;;;;;5051284;28;20021;-43
2023/04/07 06:15:40;;;;;;;4.32;2.45;;;11.40;99.90;;;;;;5052205;28;20032;-50
2023/04/07 06:18:06;;;;;;;3.95;2.50;;;11.40;99.90;;;;;;5052286;28;20025;-42
2023/04/07 06:20:31;;;;;;;3.22;2.65;;;11.40;99.90;;;;;;5051032;28;20021;-42
2023/04/07 06:22:57;;;;;;;3.95;2.38;;;11.40;99.90;;;;;;5051332;28;20425;-45
2023/04/07 06:25:23;;;;;;;3.67;2.70;;;11.40;99.90;;;;;;5051814;28;20239;-43
2023/04/07 06:27:49;;;;;;;3.58;2.00;;;11.50;99.90;;;;;;5051613;28;20026;-43
2023/04/07 06:30:15;;;;;;;2.55;1.67;;;11.40;99.90;;;;;;5052961;28;20032;-43
2023/04/07 06:32:40;;;;;;;3.42;2.17;;;11.40;99.90;;;;;;5051163;28;20021;-46
2023/04/07 06:35:06;;;;;;;2.20;1.73;;;11.40;99.90;;;;;;5050825;28;20469;-43
2023/04/07 06:37:32;;;;;;;2.25;1.52;;;11.40;99.90;;;;;;5055027;28;20116;-43
2023/04/07 06:39:58;;;;;;;2.97;1.77;;;11.40;99.90;;;;;;5056330;28;20115;-43
2023/04/07 06:42:23;;;;;;;2.20;1.83;;;11.40;99.90;;;;;;5056750;28;20055;-43
2023/04/07 06:44:49;;;;;;;2.53;1.90;;;11.50;99.90;;;;;;5053816;28;20029;-43
2023/04/07 06:47:15;;;;;;;3.20;1.90;;;11.40;99.90;;;;;;5056222;28;20025;-43
2023/04/07 06:49:40;;;;;;;2.40;1.50;;;11.40;99.90;;;;;;5056124;28;20025;-45
2023/04/07 06:52:06;;;;;;;3.67;1.85;;;11.50;99.90;;;;;;5055901;28;20028;-44
2023/04/07 06:54:32;;;;;;;2.42;1.80;;;11.40;99.90;;;;;;5055471;28;20064;-43
2023/04/07 06:56:57;;;;;;;2.72;1.73;;;11.50;99.90;;;;;;5055845;28;20044;-44
2023/04/07 06:59:23;;;;;;;2.08;1.55;;;11.50;99.90;;;;;;5054619;28;20118;-43
2023/04/07 07:01:48;;;;;;;2.13;1.63;;;11.40;99.90;;;;;;5054854;28;20052;-43
2023/04/07 07:04:14;;;;;;;1.92;1.50;;;11.40;99.90;;;;;;5055577;28;20100;-43
2023/04/07 07:06:40;;;;;;;2.58;1.77;;;11.50;99.90;;;;;;5054915;28;20025;-43
2023/04/07 07:09:05;;;;;;;1.52;1.40;;;11.50;99.90;;;;;;5055804;28;20025;-40
2023/04/07 07:11:31;;;;;;;2.42;1.45;;;11.50;99.90;;;;;;5055877;28;20391;-45
2023/04/07 07:13:56;;;;;;;3.08;1.95;;;11.50;99.90;;;;;;5054809;28;20113;-43
2023/04/07 07:16:23;;;;;;;2.15;1.48;;;11.50;99.90;;;;;;5054040;28;20023;-43
2023/04/07 07:18:49;;;;;;;1.60;1.40;;;11.50;99.90;;;;;;5054437;28;20391;-43
2023/04/07 07:21:17;;;;;;;2.78;1.80;;;11.50;99.90;;;;;;5055188;28;20074;-43
2023/04/07 07:23:43;;;;;;;1.98;1.33;;;11.50;99.90;;;;;;5055305;28;20031;-43
2023/04/07 07:26:09;;;;;;;2.63;1.60;;;11.50;99.90;;;;;;5055248;28;20021;-43
2023/04/07 07:28:35;;;;;;;1.77;1.35;;;11.50;99.90;;;;;;5055957;28;20082;-43
2023/04/07 07:31:08;;;;;;;2.22;1.38;;;11.50;99.90;;;;;;5054430;28;20468;-42
2023/04/07 07:33:34;;;;;;;1.80;1.35;;;11.50;99.90;;;;;;5054694;28;20478;-40
2023/04/07 07:36:00;;;;;;;2.25;1.50;;;11.50;99.90;;;;;;5054385;28;20032;-43
2023/04/07 07:38:26;;;;;;;2.53;1.67;;;11.50;99.90;;;;;;5053603;28;20092;-43
2023/04/07 07:40:52;;;;;;;2.40;1.58;;;11.50;99.90;;;;;;5054953;28;20042;-44
2023/04/07 07:43:17;;;;;;;1.60;1.20;;;11.50;99.90;;;;;;5054482;28;20097;-45
2023/04/07 07:45:43;;;;;;;1.75;1.48;;;11.50;99.90;;;;;;5052770;28;20037;-44
2023/04/07 07:48:09;;;;;;;2.05;1.42;;;11.50;99.90;;;;;;5053829;28;20380;-44
2023/04/07 07:50:35;;;;;;;2.60;1.40;;;11.60;99.90;;;;;;5054033;28;20017;-45
2023/04/07 07:53:01;;;;;;;2.17;1.50;;;11.60;99.90;;;;;;5054313;28;20103;-43
2023/04/07 07:55:26;;;;;;;1.70;1.38;;;11.60;99.90;;;;;;5054409;28;20113;-45
2023/04/07 07:57:52;;;;;;;2.58;1.67;;;11.60;99.90;;;;;;5054894;28;20108;-44
2023/04/07 08:00:18;;;;;;;2.55;1.50;;;11.60;99.90;;;;;;5053279;28;20494;-43
2023/04/07 08:02:44;;;;;;;2.72;1.40;;;11.60;99.90;;;;;;5053546;28;20048;-43
2023/04/07 08:05:10;;;;;;;2.10;1.35;;;11.60;99.90;;;;;;5055292;28;20075;-44
2023/04/07 08:07:36;;;;;;;2.50;1.58;;;11.70;99.90;;;;;;5054259;28;20417;-39
2023/04/07 08:10:02;;;;;;;1.63;1.10;;;11.70;99.90;;;;;;5054780;28;20044;-43
2023/04/07 08:12:27;;;;;;;1.75;1.30;;;11.70;99.90;;;;;;5053648;28;20479;-43
2023/04/07 08:14:53;;;;;;;1.73;1.30;;;11.70;99.90;;;;;;5055851;28;20033;-43
2023/04/07 08:17:19;;;;;;;2.17;1.27;;;11.70;99.90;;;;;;5053512;28;20112;-43
2023/04/07 08:19:45;;;;;;;1.98;1.00;;;11.70;99.90;;;;;;5054750;28;20052;-43
2023/04/07 08:22:10;;;;;;;1.60;1.17;;;11.80;99.90;;;;;;5053930;28;20091;-44
2023/04/07 08:24:36;;;;;;;1.90;1.27;;;11.80;99.90;;;;;;5055047;28;20507;-40
2023/04/07 08:27:02;;;;;;;1.73;1.20;;;11.80;99.90;;;;;;5054276;28;20025;-44
2023/04/07 08:29:28;;;;;;;2.03;1.42;;;11.80;99.90;;;;;;5053764;28;20025;-43
2023/04/07 08:31:53;;;;;;;1.95;1.20;;;11.80;99.90;;;;;;5053849;28;20078;-43
2023/04/07 08:34:20;;;;;;;1.98;1.27;;;11.80;99.90;;;;;;5053143;28;20025;-43
2023/04/07 08:36:46;;;;;;;1.48;1.20;;;11.90;99.90;;;;;;5052919;28;20028;-43
2023/04/07 08:39:11;;;;;;;2.33;1.30;;;11.90;99.90;;;;;;5054324;28;20021;-41
2023/04/07 08:41:43;;;;;;;1.98;1.10;;;11.90;99.90;;;;;;5053693;28;20491;-43
2023/04/07 08:44:10;;;;;;;1.92;1.30;;;11.90;99.90;;;;;;5052697;28;20509;-43
2023/04/07 08:46:38;;;;;;;1.40;1.08;;;11.90;99.90;;;;;;5054867;28;20028;-43
2023/04/07 08:49:08;;;;;;;1.80;1.10;;;11.90;99.90;;;;;;5053500;28;20025;-43
2023/04/07 08:51:36;;;;;;;1.98;1.20;;;11.90;99.90;;;;;;5053723;28;20031;-43
2023/04/07 08:54:14;;;;;;;1.48;1.00;;;11.90;99.90;;;;;;5054010;28;20021;-43
2023/04/07 08:56:41;;;;;;;2.22;1.30;;;11.90;99.90;;;;;;5050871;28;20521;-43
2023/04/07 08:59:11;;;;;;;1.83;1.30;;;12.00;99.90;;;;;;5052924;28;20537;-43
2023/04/07 09:01:38;;;;;;;1.75;1.10;;;12.00;99.90;;;;;;5053773;28;20082;-43
2023/04/07 09:04:06;;;;;;;1.50;1.23;;;12.00;99.90;;;;;;5054120;28;20041;-43
2023/04/07 09:06:32;;;;;;;1.88;1.15;;;12.00;99.90;;;;;;5052571;28;20121;-42
2023/04/07 09:09:02;;;;;;;1.48;1.23;;;12.00;99.90;;;;;;5053419;28;20415;-43
2023/04/07 09:11:29;;;;;;;2.38;1.23;;;12.00;99.90;;;;;;5053063;28;20017;-40
2023/04/07 09:13:55;;;;;;;1.63;1.13;;;12.00;99.90;;;;;;5053850;28;20438;-43
2023/04/07 09:16:22;;;;;;;1.98;1.23;;;12.00;99.90;;;;;;5051305;28;20432;-43
2023/04/07 09:18:48;;;;;;;2.17;1.23;;;12.00;99.90;;;;;;5051746;28;20037;-43
2023/04/07 09:21:14;;;;;;;1.45;1.20;;;12.00;99.90;;;;;;5051839;28;20548;-43
2023/04/07 09:23:41;;;;;;;1.58;1.10;;;12.00;99.90;;;;;;5052330;28;20036;-40
2023/04/07 09:26:26;;;;;;;1.42;1.10;;;12.00;99.90;;;;;;5053305;28;20024;-43
2023/04/07 09:28:58;;;;;;;2.53;1.35;;;12.00;99.90;;;;;;5052367;28;20379;-43
2023/04/07 09:31:46;;;;;;;2.33;0.98;;;12.00;99.90;;;;;;5051996;28;20029;-44
2023/04/07 09:34:25;;;;;;;2.08;1.10;;;12.00;99.90;;;;;;5051829;28;20029;-43
2023/04/07 09:36:51;;;;;;;2.58;1.38;;;12.00;99.90;;;;;;5052071;28;20593;-43
2023/04/07 09:39:17;;;;;;;2.35;1.27;;;12.00;99.90;;;;;;5052305;28;20033;-42
2023/04/07 09:41:42;;;;;;;3.45;1.55;;;12.00;99.90;;;;;;5054447;28;20179;-43
2023/04/07 09:44:09;;;;;;;1.38;1.00;;;12.00;99.90;;;;;;5052294;28;20612;-42
2023/04/07 09:46:35;;;;;;;1.88;1.20;;;12.00;99.90;;;;;;5051830;28;20017;-44
2023/04/07 09:49:06;;;;;;;1.83;1.02;;;12.00;99.90;;;;;;5051543;28;20582;-40
2023/04/07 09:51:32;;;;;;;1.95;1.20;;;12.00;99.90;;;;;;5052634;28;20630;-43
2023/04/07 09:53:58;;;;;;;2.40;1.20;;;12.00;99.90;;;;;;5052439;28;20033;-43
2023/04/07 09:56:25;;;;;;;1.50;1.25;;;12.00;99.90;;;;;;5050802;28;20410;-43
2023/04/07 09:58:52;;;;;;;2.00;1.13;;;12.00;99.90;;;;;;5052212;28;20031;-44
2023/04/07 10:01:18;;;;;;;2.22;1.10;;;12.00;99.90;;;;;;5052653;28;20025;-43
2023/04/07 10:03:49;;;;;;;1.80;1.20;;;12.00;99.90;;;;;;5052021;28;20039;-43
2023/04/07 10:06:15;;;;;;;2.63;1.27;;;12.00;99.90;;;;;;5053478;28;20403;-43
2023/04/07 10:08:42;;;;;;;2.60;1.20;;;12.00;99.90;;;;;;5051623;28;20029;-43
2023/04/07 10:11:08;;;;;;;1.60;1.05;;;12.00;99.90;;;;;;5051637;28;20112;-45
2023/04/07 10:13:36;;;;;;;1.20;1.05;;;12.00;99.90;;;;;;5052281;28;20033;-44
2023/04/07 10:16:04;;;;;;;1.25;1.05;;;12.00;99.90;;;;;;5051510;28;20025;-44
2023/04/07 10:18:32;;;;;;;0.98;0.82;;;12.00;99.90;;;;;;5052101;28;20048;-40
2023/04/07 10:21:05;;;;;;;1.95;1.25;;;12.00;99.90;;;;;;5051654;28;20082;-44
2023/04/07 10:23:37;;;;;;;2.28;0.93;;;12.00;99.90;;;;;;5052134;28;20411;-43
2023/04/07 10:26:06;;;;;;;1.60;1.00;;;12.00;99.90;;;;;;5050859;28;20013;-43
2023/04/07 10:28:36;;;;;;;1.63;1.00;;;12.00;99.90;;;;;;5050755;28;20024;-44
2023/04/07 10:31:02;;;;;;;2.75;1.02;;;12.00;99.90;;;;;;5051824;28;20079;-43
2023/04/07 10:33:52;;;;;;;2.22;1.40;;;12.00;99.90;;;;;;5052699;28;20029;-43
2023/04/07 10:36:20;;;;;;;2.38;1.30;;;12.00;99.90;;;;;;5051104;28;20548;-43
2023/04/07 10:39:07;;;;;;;2.83;1.17;;;11.90;99.90;;;;;;5050735;28;20033;-40
2023/04/07 10:41:37;;;;;;;1.65;1.00;;;12.00;99.90;;;;;;5051584;28;20430;-43
2023/04/07 10:44:06;;;;;;;1.80;1.10;;;11.90;99.90;;;;;;5052102;28;20032;-43
2023/04/07 10:46:44;;;;;;;1.25;0.93;;;12.00;99.90;;;;;;5052255;28;20562;-43
2023/04/07 10:49:12;;;;;;;2.75;1.27;;;12.00;99.90;;;;;;5051793;28;20025;-44
2023/04/07 10:51:38;;;;;;;2.38;1.10;;;12.00;99.90;;;;;;5052277;28;20387;-40
2023/04/07 10:54:26;;;;;;;1.70;0.93;;;12.00;99.90;;;;;;5050521;28;20031;-43
2023/04/07 10:57:12;;;;;;;1.50;1.00;;;11.90;99.90;;;;;;5050754;28;20035;-43
2023/04/07 11:00:02;;;;;;;1.60;0.98;;;11.90;99.90;;;;;;5052119;28;20025;-43
2023/04/07 11:02:27;;;;;;;1.50;1.00;;;11.90;99.90;;;;;;5051326;28;20037;-43
2023/04/07 11:04:53;;;;;;;1.55;1.05;;;12.00;99.90;;;;;;5050987;28;20041;-42
2023/04/07 11:07:38;;;;;;;1.50;1.08;;;11.90;99.90;;;;;;5050177;28;20024;-42
2023/04/07 11:10:15;;;;;;;1.35;0.88;;;11.90;99.90;;;;;;5050326;28;20029;-43
2023/04/07 11:12:41;;;;;;;2.13;0.95;;;12.00;99.90;;;;;;5051859;28;20531;-39
2023/04/07 11:15:21;;;;;;;2.30;1.10;;;12.00;99.90;;;;;;5051107;28;20025;-43
2023/04/07 11:18:05;;;;;;;1.95;1.15;;;12.00;99.90;;;;;;5049621;28;20443;-42
2023/04/07 11:20:44;;;;;;;1.48;1.08;;;12.00;99.90;;;;;;5050419;28;20037;-44
2023/04/07 11:23:11;;;;;;;1.08;0.82;;;12.00;99.90;;;;;;5051469;28;20506;-43
2023/04/07 11:25:36;;;;;;;1.58;1.00;;;12.00;99.90;;;;;;5054199;28;20021;-44
2023/04/07 11:28:05;;;;;;;1.92;1.10;;;11.90;99.90;;;;;;5055686;28;20033;-44
2023/04/07 11:30:31;;;;;;;2.63;1.20;;;12.00;99.90;;;;;;5054856;28;20025;-45
2023/04/07 11:32:57;;;;;;;1.95;1.23;;;12.00;99.90;;;;;;5054912;28;20021;-45
2023/04/07 11:35:23;;;;;;;2.15;1.52;;;12.00;99.90;;;;;;5054714;28;20085;-42
2023/04/07 11:37:55;;;;;;;2.85;1.20;;;12.00;99.90;;;;;;5054370;28;20411;-45
2023/04/07 11:40:35;;;;;;;2.30;1.38;;;12.00;99.90;;;;;;5055382;28;20028;-43
2023/04/07 11:43:02;;;;;;;2.15;1.20;;;12.00;99.90;;;;;;5054839;28;20483;-43
2023/04/07 11:45:28;;;;;;;1.77;1.20;;;12.00;99.90;;;;;;5053795;28;20116;-43
2023/04/07 11:47:53;;;;;;;3.25;1.30;;;12.00;99.90;;;;;;5054569;28;20255;-44
2023/04/07 11:50:41;;;;;;;3.83;1.70;;;11.90;99.90;;;;;;5055086;28;20032;-42
2023/04/07 11:53:07;;;;;;;2.80;1.30;;;12.00;99.90;;;;;;5053266;28;20026;-42
2023/04/07 11:55:33;;;;;;;4.07;1.67;;;12.00;99.90;;;;;;5053908;28;20490;-43
2023/04/07 11:58:08;;;;;;;3.30;1.40;;;11.90;99.90;;;;;;5054458;28;20094;-45
2023/04/07 12:00:35;;;;;;;3.25;1.63;;;12.00;99.90;;;;;;5055205;28;20029;-43
2023/04/07 12:03:14;;;;;;;2.70;1.60;;;12.00;99.90;;;;;;5053999;28;20028;-44
2023/04/07 12:05:44;;;;;;;5.03;1.52;;;12.00;99.90;;;;;;5053884;28;20032;-44
2023/04/07 12:08:09;;;;;;;2.78;1.52;;;12.00;99.90;;;;;;5054090;28;20032;-43
2023/04/07 12:10:35;;;;;;;2.35;1.40;;;12.00;99.90;;;;;;5054235;28;20384;-40
2023/04/07 12:13:01;;;;;;;5.50;1.42;;;12.00;99.90;;;;;;5053611;28;20075;-45
2023/04/07 12:15:27;;;;;;;4.03;1.70;;;12.00;99.90;;;;;;5054329;28;20175;-41
2023/04/07 12:17:54;;;;;;;2.47;1.40;;;11.90;99.90;;;;;;5053844;28;20519;-45
2023/04/07 12:20:19;;;;;;;2.08;1.33;;;12.00;99.90;;;;;;5053146;28;20032;-44
2023/04/07 12:22:46;;;;;;;2.15;1.30;;;11.90;99.90;;;;;;5054379;28;20039;-43
2023/04/07 12:25:11;;;;;;;2.58;1.35;;;11.90;99.90;;;;;;5053877;28;20103;-40
2023/04/07 12:27:37;;;;;;;1.70;0.95;;;11.90;99.90;;;;;;5053182;28;20174;-42
2023/04/07 12:30:03;;;;;;;4.15;1.63;;;11.90;99.90;;;;;;5054001;28;20028;-43
2023/04/07 12:32:28;;;;;;;3.28;1.30;;;11.90;99.90;;;;;;5053653;28;20146;-43
2023/04/07 12:34:54;;;;;;;2.42;1.30;;;11.90;99.90;;;;;;5053516;28;20032;-44
2023/04/07 12:37:20;;;;;;;2.13;1.35;;;11.90;99.90;;;;;;5053107;28;20480;-40
2023/04/07 12:39:45;;;;;;;4.72;1.30;;;11.90;99.90;;;;;;5054461;28;20033;-43
2023/04/07 12:42:11;;;;;;;2.10;1.30;;;11.90;99.90;;;;;;5053702;28;20464;-43
2023/04/07 12:44:37;;;;;;;3.30;1.52;;;11.90;99.90;;;;;;5052875;28;20551;-43
2023/04/07 12:47:03;;;;;;;2.28;1.40;;;11.80;99.90;;;;;;5052247;28;20045;-43
2023/04/07 12:49:28;;;;;;;2.92;1.27;;;11.90;99.90;;;;;;5052300;28;20052;-43
2023/04/07 12:51:54;;;;;;;3.63;1.67;;;11.90;99.90;;;;;;5052839;28;20311;-43